Time;durP1;ratioP1;P1;durP2;ratioP2;P2;SDS_P1;SDS_P2;PMS_P1;PMS_P2;Temp;Humidity;BMP_temperature;BMP_pressure;BME280_temperature;BME280_humidity;BME280_pressure;Samples;Min_cycle;Max_cycle;Signal;HPM_P1;HPM_P2
2023/03/22 00:00:20;;;;;;;;;;;12.50;99.90;;;;;;2076412;28;19913;-72
2023/03/22 00:01:22;;;;;;;;;;;12.50;99.90;;;;;;2076116;28;19917;-72
2023/03/22 00:02:24;;;;;;;;;;;12.50;99.90;;;;;;2073752;28;20279;-73
2023/03/22 00:03:26;;;;;;;;;;;12.50;99.90;;;;;;2074230;28;19945;-72
2023/03/22 00:04:26;;;;;;;;;;;12.50;99.90;;;;;;2076108;28;20284;-72
2023/03/22 00:05:29;;;;;;;;;;;12.50;99.90;;;;;;2074595;28;19960;-73
2023/03/22 00:06:29;;;;;;;;;;;12.50;99.90;;;;;;2074337;28;19962;-72
2023/03/22 00:07:30;;;;;;;;;;;12.50;99.90;;;;;;2082142;28;19925;-72
2023/03/22 00:08:30;;;;;;;;;;;12.50;99.90;;;;;;2082565;28;20396;-72
2023/03/22 00:09:31;;;;;;;;;;;12.60;99.90;;;;;;2075382;28;20000;-72
2023/03/22 00:10:32;;;;;;;;;;;12.60;99.90;;;;;;2080292;28;19912;-72
2023/03/22 00:11:33;;;;;;;;;;;12.60;99.90;;;;;;2081599;28;19909;-72
2023/03/22 00:12:33;;;;;;;;;;;12.60;99.90;;;;;;2076593;28;19915;-72
2023/03/22 00:13:35;;;;;;;;;;;12.60;99.90;;;;;;2075397;28;19909;-72
2023/03/22 00:14:35;;;;;;;;;;;12.60;99.90;;;;;;2077143;28;19920;-73
2023/03/22 00:15:36;;;;;;;;;;;12.60;99.90;;;;;;2077804;28;19908;-72
2023/03/22 00:16:36;;;;;;;;;;;12.60;99.90;;;;;;2075517;28;19913;-72
2023/03/22 00:17:37;;;;;;;;;;;12.60;99.90;;;;;;2076870;28;20030;-72
2023/03/22 00:18:37;;;;;;;;;;;12.60;99.90;;;;;;2075942;28;19909;-72
2023/03/22 00:19:41;;;;;;;;;;;12.60;99.90;;;;;;2076560;28;19940;-72
2023/03/22 00:20:52;;;;;;;;;;;12.60;99.90;;;;;;2075458;28;19953;-73
2023/03/22 00:21:52;;;;;;;;;;;12.60;99.90;;;;;;2077087;28;19987;-72
2023/03/22 00:22:52;;;;;;;;;;;12.60;99.90;;;;;;2077710;28;19909;-73
2023/03/22 00:23:53;;;;;;;;;;;12.70;99.90;;;;;;2075746;28;19916;-72
2023/03/22 00:24:53;;;;;;;;;;;12.60;99.90;;;;;;2075906;28;19916;-72
2023/03/22 00:25:54;;;;;;;;;;;12.70;99.90;;;;;;2074557;28;19917;-72
2023/03/22 00:26:55;;;;;;;;;;;12.60;99.90;;;;;;2075916;28;20361;-72
2023/03/22 00:27:55;;;;;;;;;;;12.60;99.90;;;;;;2076008;28;19908;-72
2023/03/22 00:28:56;;;;;;;;;;;12.70;99.90;;;;;;2076031;28;19963;-73
2023/03/22 00:29:56;;;;;;;;;;;12.60;99.90;;;;;;2075572;28;20761;-72
2023/03/22 00:30:58;;;;;;;;;;;12.60;99.90;;;;;;2076867;28;19909;-73
2023/03/22 00:31:58;;;;;;;;;;;12.70;99.90;;;;;;2075936;28;19917;-72
2023/03/22 00:32:59;;;;;;;;;;;12.70;99.90;;;;;;2075647;28;20734;-72
2023/03/22 00:33:59;;;;;;;;;;;12.70;99.90;;;;;;2078716;28;20028;-73
2023/03/22 00:35:00;;;;;;;;;;;12.70;99.90;;;;;;2077755;28;19972;-72
2023/03/22 00:36:03;;;;;;;;;;;12.70;99.90;;;;;;2073986;28;21504;-72
2023/03/22 00:37:03;;;;;;;;;;;12.70;99.90;;;;;;2075755;28;19923;-72
2023/03/22 00:38:12;;;;;;;;;;;12.70;99.90;;;;;;2074170;28;19984;-72
2023/03/22 00:39:13;;;;;;;;;;;12.70;99.90;;;;;;2075516;28;19991;-72
2023/03/22 00:40:14;;;;;;;;;;;12.60;99.90;;;;;;2075427;28;19913;-72
2023/03/22 00:41:16;;;;;;;;;;;12.70;99.90;;;;;;2075080;28;19914;-73
2023/03/22 00:42:16;;;;;;;;;;;12.70;99.90;;;;;;2074659;28;19910;-72
2023/03/22 00:43:17;;;;;;;;;;;12.70;99.90;;;;;;2076920;28;19944;-72
2023/03/22 00:44:17;;;;;;;;;;;12.70;99.90;;;;;;2077021;28;20055;-73
2023/03/22 00:45:17;;;;;;;;;;;12.70;99.90;;;;;;2075096;28;19913;-72
2023/03/22 00:46:19;;;;;;;;;;;12.70;99.90;;;;;;2074948;28;19913;-72
2023/03/22 00:47:19;;;;;;;;;;;12.70;99.90;;;;;;2076036;28;19909;-73
2023/03/22 00:48:21;;;;;;;;;;;12.70;99.90;;;;;;2076549;28;19955;-72
2023/03/22 00:49:22;;;;;;;;;;;12.70;99.90;;;;;;2074871;28;19929;-72
2023/03/22 00:50:22;;;;;;;;;;;12.70;99.90;;;;;;2076015;28;19928;-72
2023/03/22 00:51:23;;;;;;;;;;;12.70;99.90;;;;;;2076743;28;20025;-72
2023/03/22 00:52:24;;;;;;;;;;;12.70;99.90;;;;;;2076056;28;19912;-72
2023/03/22 00:53:25;;;;;;;;;;;12.70;99.90;;;;;;2078051;28;19933;-72
2023/03/22 00:54:25;;;;;;;;;;;12.70;99.90;;;;;;2075814;28;19909;-72
2023/03/22 00:55:25;;;;;;;;;;;12.70;99.90;;;;;;2074750;28;19952;-72
2023/03/22 00:56:27;;;;;;;;;;;12.70;99.90;;;;;;2075910;28;19913;-72
2023/03/22 00:57:28;;;;;;;;;;;12.70;99.90;;;;;;2074549;28;19932;-72
2023/03/22 00:58:28;;;;;;;;;;;12.70;99.90;;;;;;2076362;28;19920;-72
2023/03/22 00:59:29;;;;;;;;;;;12.70;99.90;;;;;;2073949;28;19959;-72
2023/03/22 01:00:30;;;;;;;;;;;12.70;99.90;;;;;;2075325;28;19928;-72
2023/03/22 01:01:30;;;;;;;;;;;12.70;99.90;;;;;;2073812;28;19960;-72
2023/03/22 01:02:32;;;;;;;;;;;12.70;99.90;;;;;;2074833;28;19913;-72
2023/03/22 01:03:33;;;;;;;;;;;12.70;99.90;;;;;;2077401;28;19912;-72
2023/03/22 01:04:34;;;;;;;;;;;12.70;99.90;;;;;;2077447;28;19963;-72
2023/03/22 01:05:36;;;;;;;;;;;12.70;99.90;;;;;;2075585;28;19917;-73
2023/03/22 01:06:37;;;;;;;;;;;12.70;99.90;;;;;;2077248;28;20320;-73
2023/03/22 01:07:40;;;;;;;;;;;12.70;99.90;;;;;;2073932;28;19975;-72
2023/03/22 01:08:41;;;;;;;;;;;12.70;99.90;;;;;;2076020;28;19917;-72
2023/03/22 01:09:41;;;;;;;;;;;12.70;99.90;;;;;;2077104;28;19928;-72
2023/03/22 01:10:42;;;;;;;;;;;12.70;99.90;;;;;;2076581;28;19975;-72
2023/03/22 01:11:42;;;;;;;;;;;12.70;99.90;;;;;;2076401;28;19978;-72
2023/03/22 01:12:43;;;;;;;;;;;12.70;99.90;;;;;;2075546;28;19905;-72
2023/03/22 01:13:44;;;;;;;;;;;12.70;99.90;;;;;;2075763;28;20375;-72
2023/03/22 01:14:45;;;;;;;;;;;12.60;99.90;;;;;;2083454;28;20010;-72
2023/03/22 01:15:48;;;;;;;;;;;12.60;99.90;;;;;;2082849;28;19909;-73
2023/03/22 01:16:49;;;;;;;;;;;12.60;99.90;;;;;;2075960;28;20369;-72
2023/03/22 01:17:50;;;;;;;;;;;12.60;99.90;;;;;;2075883;28;20272;-72
2023/03/22 01:18:50;;;;;;;;;;;12.60;99.90;;;;;;2077365;28;19952;-72
2023/03/22 01:19:51;;;;;;;;;;;12.60;99.90;;;;;;2077335;28;19916;-72
2023/03/22 01:20:51;;;;;;;;;;;12.60;99.90;;;;;;2076258;28;19916;-73
2023/03/22 01:21:52;;;;;;;;;;;12.60;99.90;;;;;;2075629;28;19920;-72
2023/03/22 01:22:53;;;;;;;;;;;12.60;99.90;;;;;;2075948;28;19999;-72
2023/03/22 01:23:53;;;;;;;;;;;12.60;99.90;;;;;;2075290;28;19982;-72
2023/03/22 01:24:54;;;;;;;;;;;12.60;99.90;;;;;;2075097;28;20364;-73
2023/03/22 01:25:54;;;;;;;;;;;12.60;99.90;;;;;;2075486;28;19910;-72
2023/03/22 01:26:55;;;;;;;;;;;12.60;99.90;;;;;;2075061;28;19906;-73
2023/03/22 01:27:55;;;;;;;;;;;12.60;99.90;;;;;;2074410;28;19909;-72
2023/03/22 01:28:56;;;;;;;;;;;12.60;99.90;;;;;;2076822;28;19916;-72
2023/03/22 01:29:56;;;;;;;;;;;12.60;99.90;;;;;;2076155;28;20407;-72
2023/03/22 01:31:01;;;;;;;;;;;12.60;99.90;;;;;;2075043;28;20407;-72
2023/03/22 01:32:02;;;;;;;;;;;12.60;99.90;;;;;;2072790;28;20012;-72
2023/03/22 01:33:04;;;;;;;;;;;12.60;99.90;;;;;;2072315;28;20822;-72
2023/03/22 01:34:05;;;;;;;;;;;12.60;99.90;;;;;;2076597;28;20372;-72
2023/03/22 01:35:05;;;;;;;;;;;12.60;99.90;;;;;;2076868;28;20474;-72
2023/03/22 01:36:06;;;;;;;;;;;12.60;99.90;;;;;;2076096;28;20555;-72
2023/03/22 01:37:06;;;;;;;;;;;12.60;99.90;;;;;;2075767;28;19972;-72
2023/03/22 01:38:07;;;;;;;;;;;12.50;99.90;;;;;;2079608;28;20462;-73
2023/03/22 01:39:07;;;;;;;;;;;12.50;99.90;;;;;;2078475;28;20007;-72
2023/03/22 01:40:09;;;;;;;;;;;12.50;99.90;;;;;;2072507;28;19957;-72
2023/03/22 01:41:10;;;;;;;;;;;12.50;99.90;;;;;;2076585;28;20060;-73
2023/03/22 01:42:12;;;;;;;;;;;12.50;99.90;;;;;;2075192;28;19913;-72
2023/03/22 01:43:14;;;;;;;;;;;12.50;99.90;;;;;;2075295;28;20686;-72
2023/03/22 01:44:16;;;;;;;;;;;12.50;99.90;;;;;;2074539;28;20040;-72
2023/03/22 01:45:23;;;;;;;;;;;12.50;99.90;;;;;;2076700;28;20445;-72
2023/03/22 01:46:24;;;;;;;;;;;12.50;99.90;;;;;;2078469;28;19909;-72
2023/03/22 01:47:25;;;;;;;;;;;12.50;99.90;;;;;;2082381;28;19927;-72
2023/03/22 01:48:28;;;;;;;;;;;12.50;99.90;;;;;;2080465;28;19916;-72
2023/03/22 01:49:31;;;;;;;;;;;12.50;99.90;;;;;;2082237;28;19920;-72
2023/03/22 01:50:31;;;;;;;;;;;12.50;99.90;;;;;;2073918;28;19958;-72
2023/03/22 01:51:32;;;;;;;;;;;12.50;99.90;;;;;;2073917;28;19967;-72
2023/03/22 01:52:33;;;;;;;;;;;12.50;99.90;;;;;;2074726;28;19917;-72
2023/03/22 01:53:37;;;;;;;;;;;12.50;99.90;;;;;;2073727;28;19909;-72
2023/03/22 01:54:41;;;;;;;;;;;12.50;99.90;;;;;;2074656;28;20051;-73
2023/03/22 01:55:42;;;;;;;;;;;12.50;99.90;;;;;;2074769;28;19912;-72
2023/03/22 01:56:43;;;;;;;;;;;12.50;99.90;;;;;;2076207;28;19909;-72
2023/03/22 01:57:44;;;;;;;;;;;12.50;99.90;;;;;;2075922;28;19967;-72
2023/03/22 01:58:45;;;;;;;;;;;12.50;99.90;;;;;;2073100;28;19924;-72
2023/03/22 01:59:46;;;;;;;;;;;12.50;99.90;;;;;;2075923;28;20454;-72
2023/03/22 02:00:47;;;;;;;;;;;12.50;99.90;;;;;;2074945;28;19909;-73
2023/03/22 02:01:48;;;;;;;;;;;12.50;99.90;;;;;;2072853;28;20289;-72
2023/03/22 02:02:50;;;;;;;;;;;12.50;99.90;;;;;;2077712;28;19913;-73
2023/03/22 02:04:08;;;;;;;;;;;12.50;99.90;;;;;;2077760;28;19994;-72
2023/03/22 02:05:08;;;;;;;;;;;12.50;99.90;;;;;;2074707;28;19909;-72
2023/03/22 02:06:09;;;;;;;;;;;12.50;99.90;;;;;;2074156;28;19909;-72
2023/03/22 02:07:14;;;;;;;;;;;12.50;99.90;;;;;;2075502;28;20116;-72
2023/03/22 02:08:14;;;;;;;;;;;12.50;99.90;;;;;;2074799;28;20435;-72
2023/03/22 02:09:20;;;;;;;;;;;12.50;99.90;;;;;;2074780;28;19966;-72
2023/03/22 02:10:23;;;;;;;;;;;12.50;99.90;;;;;;2075039;28;20020;-72
2023/03/22 02:11:29;;;;;;;;;;;12.50;99.90;;;;;;2074463;28;19913;-72
2023/03/22 02:12:40;;;;;;;;;;;12.50;99.90;;;;;;2072878;28;19944;-72
2023/03/22 02:13:59;;;;;;;;;;;12.50;99.90;;;;;;2083709;28;20039;-72
2023/03/22 02:15:19;;;;;;;;;;;12.50;99.90;;;;;;2081754;28;19905;-72
2023/03/22 02:16:37;;;;;;;;;;;12.50;99.90;;;;;;2074961;28;19978;-72
2023/03/22 02:17:58;;;;;;;;;;;12.40;99.90;;;;;;2075894;28;19996;-72
2023/03/22 02:19:28;;;;;;;;;;;12.40;99.90;;;;;;2084623;28;19924;-72
2023/03/22 02:20:28;;;;;;;;;;;12.40;99.90;;;;;;2078908;28;19924;-72
2023/03/22 02:21:34;;;;;;;;;;;12.40;99.90;;;;;;2076554;28;20379;-72
2023/03/22 02:22:40;;;;;;;;;;;12.40;99.90;;;;;;2075846;28;19909;-72
2023/03/22 02:24:00;;;;;;;;;;;12.40;99.90;;;;;;2077497;28;19997;-72
2023/03/22 02:25:06;;;;;;;;;;;12.40;99.90;;;;;;2077082;28;19913;-72
2023/03/22 02:26:32;;;;;;;;;;;12.40;99.90;;;;;;2075165;28;20555;-72
2023/03/22 02:28:01;;;;;;;;;;;12.40;99.90;;;;;;2070767;28;19932;-72
2023/03/22 02:29:12;;;;;;;;;;;12.40;99.90;;;;;;2076502;28;19917;-72
2023/03/22 02:30:42;;;;;;;;;;;12.30;99.90;;;;;;2073760;28;20542;-72
2023/03/22 02:32:01;;;;;;;;;;;12.30;99.90;;;;;;2077891;28;20458;-73
2023/03/22 02:33:16;;;;;;;;;;;12.30;99.90;;;;;;2076029;28;19909;-72
2023/03/22 02:34:16;;;;;;;;;;;12.30;99.90;;;;;;2075402;28;20302;-72
2023/03/22 02:35:17;;;;;;;;;;;12.30;99.90;;;;;;2081418;28;19904;-72
2023/03/22 02:36:47;;;;;;;;;;;12.30;99.90;;;;;;2080262;28;19912;-72
2023/03/22 02:38:12;;;;;;;;;;;12.30;99.90;;;;;;2074779;28;19905;-73
2023/03/22 02:39:13;;;;;;;;;;;12.30;99.90;;;;;;2075334;28;20395;-74
2023/03/22 02:40:13;;;;;;;;;;;12.30;99.90;;;;;;2075445;28;19920;-72
2023/03/22 02:41:17;;;;;;;;;;;12.30;99.90;;;;;;2076709;28;19959;-72
2023/03/22 02:42:26;;;;;;;;;;;12.30;99.90;;;;;;2076836;28;19920;-72
2023/03/22 02:43:29;;;;;;;;;;;12.20;99.90;;;;;;2077104;28;19981;-73
2023/03/22 02:44:33;;;;;;;;;;;12.30;99.90;;;;;;2076740;28;19909;-72
2023/03/22 02:45:33;;;;;;;;;;;12.20;99.90;;;;;;2075385;28;19913;-72
2023/03/22 02:46:40;;;;;;;;;;;12.20;99.90;;;;;;2076623;28;19916;-72
2023/03/22 02:47:48;;;;;;;;;;;12.20;99.90;;;;;;2074909;28;20433;-72
2023/03/22 02:49:03;;;;;;;;;;;12.20;99.90;;;;;;2075637;28;19909;-72
2023/03/22 02:50:13;;;;;;;;;;;12.20;99.90;;;;;;2074682;28;19909;-72
2023/03/22 02:51:31;;;;;;;;;;;12.10;99.90;;;;;;2074725;28;19927;-72
2023/03/22 02:52:38;;;;;;;;;;;12.10;99.90;;;;;;2075923;28;19909;-72
2023/03/22 02:53:45;;;;;;;;;;;12.10;99.90;;;;;;2076512;28;20273;-72
2023/03/22 02:54:48;;;;;;;;;;;12.10;99.90;;;;;;2076637;28;19955;-72
2023/03/22 02:56:02;;;;;;;;;;;12.10;99.90;;;;;;2076649;28;19905;-72
2023/03/22 02:57:12;;;;;;;;;;;12.10;99.90;;;;;;2075380;28;19913;-72
2023/03/22 02:58:15;;;;;;;;;;;12.10;99.90;;;;;;2073725;28;19995;-72
2023/03/22 02:59:16;;;;;;;;;;;12.10;99.90;;;;;;2075789;28;19909;-72
2023/03/22 03:00:18;;;;;;;;;;;12.10;99.90;;;;;;2079070;28;19995;-72
2023/03/22 03:01:18;;;;;;;;;;;12.00;99.90;;;;;;2078746;28;20348;-72
2023/03/22 03:02:20;;;;;;;;;;;12.10;99.90;;;;;;2079416;28;19959;-72
2023/03/22 03:03:24;;;;;;;;;;;12.00;99.90;;;;;;2079676;28;19917;-73
2023/03/22 03:04:29;;;;;;;;;;;12.10;99.90;;;;;;2076167;28;19909;-72
2023/03/22 03:05:30;;;;;;;;;;;12.00;99.90;;;;;;2076030;28;19955;-72
2023/03/22 03:06:34;;;;;;;;;;;12.00;99.90;;;;;;2074390;28;20003;-72
2023/03/22 03:07:36;;;;;;;;;;;12.00;99.90;;;;;;2077486;28;20347;-72
2023/03/22 03:08:37;;;;;;;;;;;12.00;99.90;;;;;;2079504;28;20340;-72
2023/03/22 03:09:39;;;;;;;;;;;12.00;99.90;;;;;;2075649;28;19905;-72
2023/03/22 03:10:39;;;;;;;;;;;12.00;99.90;;;;;;2076092;28;19909;-72
2023/03/22 03:11:40;;;;;;;;;;;12.00;99.90;;;;;;2076731;28;19913;-72
2023/03/22 03:12:41;;;;;;;;;;;12.00;99.90;;;;;;2076153;28;20039;-72
2023/03/22 03:13:42;;;;;;;;;;;12.00;99.90;;;;;;2073678;28;19919;-73
2023/03/22 03:14:42;;;;;;;;;;;12.00;99.90;;;;;;2083490;28;20284;-72
2023/03/22 03:15:44;;;;;;;;;;;12.00;99.90;;;;;;2083483;28;19916;-73
2023/03/22 03:16:45;;;;;;;;;;;12.00;99.90;;;;;;2077979;28;19912;-72
2023/03/22 03:17:48;;;;;;;;;;;11.90;99.90;;;;;;2074121;28;19909;-72
2023/03/22 03:18:54;;;;;;;;;;;11.90;99.90;;;;;;2075780;28;19913;-72
2023/03/22 03:20:16;;;;;;;;;;;11.90;99.90;;;;;;2076130;28;20353;-72
2023/03/22 03:21:38;;;;;;;;;;;11.90;99.90;;;;;;2077998;28;20474;-72
2023/03/22 03:22:57;;;;;;;;;;;11.90;99.90;;;;;;2073779;28;19937;-72
2023/03/22 03:24:13;;;;;;;;;;;11.90;99.90;;;;;;2085651;28;19913;-72
2023/03/22 03:25:20;;;;;;;;;;;11.90;99.90;;;;;;2081599;28;19946;-72
2023/03/22 03:26:29;;;;;;;;;;;11.90;99.90;;;;;;2073526;28;19917;-72
2023/03/22 03:27:32;;;;;;;;;;;11.80;99.90;;;;;;2073551;28;19909;-72
2023/03/22 03:28:38;;;;;;;;;;;11.80;99.90;;;;;;2075863;28;19917;-72
2023/03/22 03:29:45;;;;;;;;;;;11.80;99.90;;;;;;2072948;28;19906;-72
2023/03/22 03:30:55;;;;;;;;;;;11.80;99.90;;;;;;2073847;28;19916;-72
2023/03/22 03:32:02;;;;;;;;;;;11.80;99.90;;;;;;2077203;28;19913;-72
2023/03/22 03:33:08;;;;;;;;;;;11.80;99.90;;;;;;2076300;28;19915;-72
2023/03/22 03:34:12;;;;;;;;;;;11.70;99.90;;;;;;2076503;28;19916;-71
2023/03/22 03:35:24;;;;;;;;;;;11.70;99.90;;;;;;2074458;28;19999;-72
2023/03/22 03:36:25;;;;;;;;;;;11.70;99.90;;;;;;2076533;28;19913;-72
2023/03/22 03:37:45;;;;;;;;;;;11.70;99.90;;;;;;2077161;28;19917;-72
2023/03/22 03:38:48;;;;;;;;;;;11.70;99.90;;;;;;2083257;28;19913;-72
2023/03/22 03:40:12;;;;;;;;;;;11.70;99.90;;;;;;2081062;28;19913;-72
2023/03/22 03:41:15;;;;;;;;;;;11.70;99.90;;;;;;2073241;28;19905;-72
2023/03/22 03:42:16;;;;;;;;;;;11.70;99.90;;;;;;2076020;28;20019;-73
2023/03/22 03:43:18;;;;;;;;;;;11.70;99.90;;;;;;2074387;28;19909;-72
2023/03/22 03:44:18;;;;;;;;;;;11.70;99.90;;;;;;2075585;28;20264;-72
2023/03/22 03:45:20;;;;;;;;;;;11.70;99.90;;;;;;2079356;28;19932;-73
2023/03/22 03:46:21;;;;;;;;;;;11.60;99.90;;;;;;2079292;28;19913;-72
2023/03/22 03:47:22;;;;;;;;;;;11.70;99.90;;;;;;2078305;28;20434;-72
2023/03/22 03:48:26;;;;;;;;;;;11.60;99.90;;;;;;2078329;28;20421;-72
2023/03/22 03:49:27;;;;;;;;;;;11.60;99.90;;;;;;2077162;28;20335;-72
2023/03/22 03:50:28;;;;;;;;;;;11.60;99.90;;;;;;2074647;28;19909;-72
2023/03/22 03:51:29;;;;;;;;;;;11.60;99.90;;;;;;2075842;28;21490;-72
2023/03/22 03:52:29;;;;;;;;;;;11.60;99.90;;;;;;2082833;28;19909;-72
2023/03/22 03:53:30;;;;;;;;;;;11.60;99.90;;;;;;2082950;28;19959;-72
2023/03/22 03:54:30;;;;;;;;;;;11.60;99.90;;;;;;2074797;28;20299;-72
2023/03/22 03:55:32;;;;;;;;;;;11.60;99.90;;;;;;2075573;28;19929;-72
2023/03/22 03:56:32;;;;;;;;;;;11.60;99.90;;;;;;2075283;28;19918;-72
2023/03/22 03:57:33;;;;;;;;;;;11.50;99.90;;;;;;2074711;28;19909;-72
2023/03/22 03:58:33;;;;;;;;;;;11.50;99.90;;;;;;2076173;28;20020;-72
2023/03/22 03:59:33;;;;;;;;;;;11.50;99.90;;;;;;2075187;28;19909;-72
2023/03/22 04:00:34;;;;;;;;;;;11.50;99.90;;;;;;2081997;28;19913;-72
2023/03/22 04:01:35;;;;;;;;;;;11.50;99.90;;;;;;2084876;28;19913;-72
2023/03/22 04:02:35;;;;;;;;;;;11.50;99.90;;;;;;2075791;28;20035;-72
2023/03/22 04:03:36;;;;;;;;;;;11.50;99.90;;;;;;2077008;28;19924;-72
2023/03/22 04:04:37;;;;;;;;;;;11.50;99.90;;;;;;2074855;28;19925;-72
2023/03/22 04:05:37;;;;;;;;;;;11.50;99.90;;;;;;2073041;28;19956;-73
2023/03/22 04:06:38;;;;;;;;;;;11.50;99.90;;;;;;2082241;28;19916;-72
2023/03/22 04:07:40;;;;;;;;;;;11.40;99.90;;;;;;2078475;28;19905;-72
2023/03/22 04:08:40;;;;;;;;;;;11.40;99.90;;;;;;2077617;28;19920;-72
2023/03/22 04:09:41;;;;;;;;;;;11.50;99.90;;;;;;2076595;28;20685;-72
2023/03/22 04:10:41;;;;;;;;;;;11.40;99.90;;;;;;2074188;28;20284;-72
2023/03/22 04:11:41;;;;;;;;;;;11.40;99.90;;;;;;2074130;28;20430;-72
2023/03/22 04:12:42;;;;;;;;;;;11.40;99.90;;;;;;2077957;28;19913;-72
2023/03/22 04:13:42;;;;;;;;;;;11.40;99.90;;;;;;2078867;28;19941;-72
2023/03/22 04:14:43;;;;;;;;;;;11.40;99.90;;;;;;2076121;28;20397;-72
2023/03/22 04:15:44;;;;;;;;;;;11.50;99.90;;;;;;2074632;28;19912;-72
2023/03/22 04:16:44;;;;;;;;;;;11.40;99.90;;;;;;2074897;28;19910;-72
2023/03/22 04:17:45;;;;;;;;;;;11.40;99.90;;;;;;2079937;28;19913;-73
2023/03/22 04:18:46;;;;;;;;;;;11.40;99.90;;;;;;2080754;28;20404;-72
2023/03/22 04:19:46;;;;;;;;;;;11.40;99.90;;;;;;2075089;28;20002;-72
2023/03/22 04:20:48;;;;;;;;;;;11.40;99.90;;;;;;2075986;28;19909;-72
2023/03/22 04:21:48;;;;;;;;;;;11.40;99.90;;;;;;2074619;28;19906;-72
2023/03/22 04:22:49;;;;;;;;;;;11.40;99.90;;;;;;2074370;28;19912;-72
2023/03/22 04:23:50;;;;;;;;;;;11.40;99.90;;;;;;2073043;28;19909;-73
2023/03/22 04:24:50;;;;;;;;;;;11.30;99.90;;;;;;2081545;28;20537;-72
2023/03/22 04:25:51;;;;;;;;;;;11.30;99.90;;;;;;2076784;28;19905;-72
2023/03/22 04:26:51;;;;;;;;;;;11.30;99.90;;;;;;2076541;28;19920;-72
2023/03/22 04:27:54;;;;;;;;;;;11.30;99.90;;;;;;2075709;28;19963;-72
2023/03/22 04:28:55;;;;;;;;;;;11.40;99.90;;;;;;2075887;28;20007;-72
2023/03/22 04:29:56;;;;;;;;;;;11.30;99.90;;;;;;2074646;28;19909;-72
2023/03/22 04:30:57;;;;;;;;;;;11.30;99.90;;;;;;2075707;28;19916;-72
2023/03/22 04:31:58;;;;;;;;;;;11.30;99.90;;;;;;2076029;28;19909;-72
2023/03/22 04:33:00;;;;;;;;;;;11.40;99.90;;;;;;2074958;28;20362;-72
2023/03/22 04:34:04;;;;;;;;;;;11.30;99.90;;;;;;2075913;28;20135;-72
2023/03/22 04:35:05;;;;;;;;;;;11.30;99.90;;;;;;2077381;28;19917;-74
2023/03/22 04:36:09;;;;;;;;;;;11.40;99.90;;;;;;2069953;28;19952;-72
2023/03/22 04:37:09;;;;;;;;;;;11.30;99.90;;;;;;2079238;28;19909;-72
2023/03/22 04:38:10;;;;;;;;;;;11.30;99.90;;;;;;2074179;28;19912;-72
2023/03/22 04:39:11;;;;;;;;;;;11.30;99.90;;;;;;2073816;28;20339;-72
2023/03/22 04:40:15;;;;;;;;;;;11.30;99.90;;;;;;2074378;28;20059;-72
2023/03/22 04:41:16;;;;;;;;;;;11.30;99.90;;;;;;2076044;28;19913;-72
2023/03/22 04:42:17;;;;;;;;;;;11.30;99.90;;;;;;2077270;28;20000;-71
2023/03/22 04:43:17;;;;;;;;;;;11.30;99.90;;;;;;2076209;28;19916;-72
2023/03/22 04:44:18;;;;;;;;;;;11.30;99.90;;;;;;2076775;28;19939;-72
2023/03/22 04:45:18;;;;;;;;;;;11.30;99.90;;;;;;2077328;28;19987;-72
2023/03/22 04:46:20;;;;;;;;;;;11.30;99.90;;;;;;2075867;28;19916;-71
2023/03/22 04:47:20;;;;;;;;;;;11.30;99.90;;;;;;2075857;28;20265;-72
2023/03/22 04:48:22;;;;;;;;;;;11.30;99.90;;;;;;2075547;28;19944;-72
2023/03/22 04:49:22;;;;;;;;;;;11.30;99.90;;;;;;2074556;28;19949;-72
2023/03/22 04:50:23;;;;;;;;;;;11.30;99.90;;;;;;2074427;28;19909;-72
2023/03/22 04:51:24;;;;;;;;;;;11.30;99.90;;;;;;2076542;28;19915;-72
2023/03/22 04:52:25;;;;;;;;;;;11.30;99.90;;;;;;2074427;28;20047;-72
2023/03/22 04:53:26;;;;;;;;;;;11.30;99.90;;;;;;2073863;28;19955;-72
2023/03/22 04:54:26;;;;;;;;;;;11.30;99.90;;;;;;2074734;28;19909;-72
2023/03/22 04:55:28;;;;;;;;;;;11.30;99.90;;;;;;2074135;28;20451;-72
2023/03/22 04:56:29;;;;;;;;;;;11.30;99.90;;;;;;2075751;28;20301;-72
2023/03/22 04:57:30;;;;;;;;;;;11.30;99.90;;;;;;2075294;28;19935;-72
2023/03/22 04:58:30;;;;;;;;;;;11.20;99.90;;;;;;2076650;28;20300;-72
2023/03/22 04:59:31;;;;;;;;;;;11.20;99.90;;;;;;2076991;28;20360;-72
2023/03/22 05:00:31;;;;;;;;;;;11.30;99.90;;;;;;2077471;28;20428;-74
2023/03/22 05:01:34;;;;;;;;;;;11.30;99.90;;;;;;2078572;28;19913;-72
2023/03/22 05:02:37;;;;;;;;;;;11.30;99.90;;;;;;2073811;28;19956;-72
2023/03/22 05:03:38;;;;;;;;;;;11.20;99.90;;;;;;2073010;28;19909;-72
2023/03/22 05:04:38;;;;;;;;;;;11.20;99.90;;;;;;2075612;28;19916;-72
2023/03/22 05:05:39;;;;;;;;;;;11.20;99.90;;;;;;2075691;28;19928;-72
2023/03/22 05:06:39;;;;;;;;;;;11.20;99.90;;;;;;2075595;28;19912;-72
2023/03/22 05:07:40;;;;;;;;;;;11.20;99.90;;;;;;2074688;28;19914;-74
2023/03/22 05:08:40;;;;;;;;;;;11.20;99.90;;;;;;2075130;28;19913;-72
2023/03/22 05:09:41;;;;;;;;;;;11.20;99.90;;;;;;2074795;28;19905;-73
2023/03/22 05:10:41;;;;;;;;;;;11.20;99.90;;;;;;2073929;28;20058;-73
2023/03/22 05:11:42;;;;;;;;;;;11.20;99.90;;;;;;2073756;28;19916;-73
2023/03/22 05:12:42;;;;;;;;;;;11.20;99.90;;;;;;2075980;28;20419;-73
2023/03/22 05:13:43;;;;;;;;;;;11.20;99.90;;;;;;2076875;28;19928;-73
2023/03/22 05:14:43;;;;;;;;;;;11.20;99.90;;;;;;2076135;28;19963;-73
2023/03/22 05:15:44;;;;;;;;;;;11.20;99.90;;;;;;2077084;28;19928;-73
2023/03/22 05:16:44;;;;;;;;;;;11.20;99.90;;;;;;2074077;28;20251;-73
2023/03/22 05:17:45;;;;;;;;;;;11.20;99.90;;;;;;2076315;28;20038;-73
2023/03/22 05:18:45;;;;;;;;;;;11.20;99.90;;;;;;2076299;28;19909;-73
2023/03/22 05:19:46;;;;;;;;;;;11.20;99.90;;;;;;2076051;28;19913;-73
2023/03/22 05:20:47;;;;;;;;;;;11.20;99.90;;;;;;2076174;28;19905;-73
2023/03/22 05:21:47;;;;;;;;;;;11.20;99.90;;;;;;2075939;28;19923;-73
2023/03/22 05:22:49;;;;;;;;;;;11.20;99.90;;;;;;2075187;28;20015;-73
2023/03/22 05:23:50;;;;;;;;;;;11.20;99.90;;;;;;2075351;28;19908;-73
2023/03/22 05:24:50;;;;;;;;;;;11.30;99.90;;;;;;2074857;28;19913;-73
2023/03/22 05:25:51;;;;;;;;;;;11.30;99.90;;;;;;2076236;28;19916;-73
2023/03/22 05:26:52;;;;;;;;;;;11.30;99.90;;;;;;2075161;28;19905;-73
2023/03/22 05:27:53;;;;;;;;;;;11.30;99.90;;;;;;2076097;28;19999;-73
2023/03/22 05:28:54;;;;;;;;;;;11.20;99.90;;;;;;2076236;28;19910;-73
2023/03/22 05:29:54;;;;;;;;;;;11.20;99.90;;;;;;2073554;28;19905;-73
2023/03/22 05:30:55;;;;;;;;;;;11.30;99.90;;;;;;2075782;28;20268;-73
2023/03/22 05:31:55;;;;;;;;;;;11.20;99.90;;;;;;2076871;28;19913;-73
2023/03/22 05:32:56;;;;;;;;;;;11.30;99.90;;;;;;2075435;28;20027;-73
2023/03/22 05:33:57;;;;;;;;;;;11.20;99.90;;;;;;2082167;28;19909;-73
2023/03/22 05:35:02;;;;;;;;;;;11.20;99.90;;;;;;2081188;28;19912;-73
2023/03/22 05:36:02;;;;;;;;;;;11.20;99.90;;;;;;2074577;28;19915;-73
2023/03/22 05:37:03;;;;;;;;;;;11.30;99.90;;;;;;2074342;28;19916;-73
2023/03/22 05:38:04;;;;;;;;;;;11.30;99.90;;;;;;2077809;28;19958;-73
2023/03/22 05:39:05;;;;;;;;;;;11.30;99.90;;;;;;2079197;28;19909;-73
2023/03/22 05:40:08;;;;;;;;;;;11.30;99.90;;;;;;2073129;28;19918;-73
2023/03/22 05:41:09;;;;;;;;;;;11.30;99.90;;;;;;2075707;28;19914;-73
2023/03/22 05:42:10;;;;;;;;;;;11.30;99.90;;;;;;2076413;28;20410;-73
2023/03/22 05:43:11;;;;;;;;;;;11.30;99.90;;;;;;2075001;28;20708;-73
2023/03/22 05:44:11;;;;;;;;;;;11.30;99.90;;;;;;2074221;28;20414;-73
2023/03/22 05:45:11;;;;;;;;;;;11.30;99.90;;;;;;2074998;28;19905;-73
2023/03/22 05:46:12;;;;;;;;;;;11.30;99.90;;;;;;2075980;28;19909;-73
2023/03/22 05:47:12;;;;;;;;;;;11.30;99.90;;;;;;2073682;28;20637;-73
2023/03/22 05:48:13;;;;;;;;;;;11.30;99.90;;;;;;2083177;28;19912;-73
2023/03/22 05:49:13;;;;;;;;;;;11.30;99.90;;;;;;2082361;28;21379;-73
2023/03/22 05:50:16;;;;;;;;;;;11.40;99.90;;;;;;2075469;28;19944;-73
2023/03/22 05:51:16;;;;;;;;;;;11.40;99.90;;;;;;2076604;28;19917;-73
2023/03/22 05:52:17;;;;;;;;;;;11.40;99.90;;;;;;2079855;28;20064;-73
2023/03/22 05:53:17;;;;;;;;;;;11.40;99.90;;;;;;2069867;28;20825;-73
2023/03/22 05:54:18;;;;;;;;;;;11.40;99.90;;;;;;2076094;28;20642;-73
2023/03/22 05:55:19;;;;;;;;;;;11.40;99.90;;;;;;2077144;28;19983;-73
2023/03/22 05:56:23;;;;;;;;;;;11.40;99.90;;;;;;2076236;28;19921;-73
2023/03/22 05:57:23;;;;;;;;;;;11.40;99.90;;;;;;2077654;28;19913;-73
2023/03/22 05:58:27;;;;;;;;;;;11.40;99.90;;;;;;2075193;28;19913;-73
2023/03/22 05:59:28;;;;;;;;;;;11.40;99.90;;;;;;2075847;28;20329;-73
2023/03/22 06:00:30;;;;;;;;;;;11.40;99.90;;;;;;2073092;28;19936;-73
2023/03/22 06:01:32;;;;;;;;;;;11.50;99.90;;;;;;2076069;28;19913;-73
2023/03/22 06:02:32;;;;;;;;;;;11.50;99.90;;;;;;2077267;28;19913;-73
2023/03/22 06:03:33;;;;;;;;;;;11.50;99.90;;;;;;2078790;28;19909;-73
2023/03/22 06:04:33;;;;;;;;;;;11.50;99.90;;;;;;2079183;28;19996;-73
2023/03/22 06:05:35;;;;;;;;;;;11.50;99.90;;;;;;2076351;28;19963;-73